Time,TemperatureF,DewpointF,PressureIn,WindDirection,WindDirectionDegrees,WindSpeedMPH,WindSpeedGustMPH,Humidity,HourlyPrecipIn,Conditions,Clouds,dailyrainin,SoftwareType,DateUTC
2013-01-01 00:02:00,74.8,61.8,29.87,WNW,292,0.0,0.0,64,0.00,CLR,,0.00,WeatherDisplay:10.37,2012-12-31 13:02:00,
2013-01-01 00:07:00,74.7,61.7,29.87,South,180,0.0,0.0,64,0.00,CLR,,0.00,WeatherDisplay:10.37,2012-12-31 13:07:00,
2013-01-01 00:13:00,74.5,61.5,29.87,South,180,0.0,0.0,64,0.00,CLR,,0.00,WeatherDisplay:10.37,2012-12-31 13:13:00,
2013-01-01 00:18:00,74.3,61.3,29.86,South,180,0.0,0.0,64,0.00,CLR,,0.00,WeatherDisplay:10.37,2012-12-31 13:18:00,
2013-01-01 00:23:00,74.1,61.6,29.86,East,90,0.0,0.0,65,0.00,CLR,,0.00,WeatherDisplay:10.37,2012-12-31 13:23:00,
2013-01-01 00:28:00,73.9,61.4,29.86,NNE,22,0.0,0.1,65,0.00,CLR,,0.00,WeatherDisplay:10.37,2012-12-31 13:28:00,
2013-01-01 00:33:00,73.8,61.3,29.85,NNW,338,0.0,0.0,65,0.00,CLR,,0.00,WeatherDisplay:10.37,2012-12-31 13:33:00,
2013-01-01 00:38:00,73.6,61.1,29.85,ENE,68,0.0,0.0,65,0.00,CLR,,0.00,WeatherDisplay:10.37,2012-12-31 13:38:00,
2013-01-01 00:44:00,73.4,61.3,29.85,SSE,158,0.0,0.0,66,0.00,CLR,,0.00,WeatherDisplay:10.37,2012-12-31 13:44:00,
2013-01-01 00:49:00,73.2,61.2,29.85,SSE,158,0.0,0.0,66,0.00,CLR,,0.00,WeatherDisplay:10.37,2012-12-31 13:49:00,
2013-01-01 00:54:00,73.2,61.6,29.85,SSW,202,0.0,0.0,67,0.00,CLR,,0.00,WeatherDisplay:10.37,2012-12-31 13:54:00,
2013-01-01 00:59:00,73.0,61.4,29.85,SSW,202,2.3,2.3,67,0.00,CLR,,0.00,WeatherDisplay:10.37,2012-12-31 13:59:00,
2013-01-01 01:04:00,73.0,61.4,29.85,WNW,292,2.3,2.3,67,0.00,CLR,,0.00,WeatherDisplay:10.37,2012-12-31 14:04:00,
2013-01-01 01:09:00,72.9,61.7,29.85,North,0,2.3,2.3,68,0.00,CLR,,0.00,WeatherDisplay:10.37,2012-12-31 14:09:00,
2013-01-01 01:14:00,72.7,61.5,29.85,WSW,248,0.0,0.0,68,0.00,CLR,,0.00,WeatherDisplay:10.37,2012-12-31 14:14:00,
2013-01-01 01:19:00,72.7,61.5,29.85,SSW,202,1.1,1.1,68,0.00,CLR,,0.00,WeatherDisplay:10.37,2012-12-31 14:19:00,
2013-01-01 01:24:00,72.5,61.7,29.84,ESE,112,1.1,0.0,69,0.00,CLR,,0.00,WeatherDisplay:10.37,2012-12-31 14:24:00,
2013-01-01 01:29:00,72.3,61.6,29.84,South,180,0.0,0.1,69,0.00,CLR,,0.00,WeatherDisplay:10.37,2012-12-31 14:29:00,
2013-01-01 01:34:00,72.3,61.6,29.84,NE,45,0.9,0.9,69,0.00,CLR,,0.00,WeatherDisplay:10.37,2012-12-31 14:34:00,
2013-01-01 01:39:00,72.1,61.4,29.84,NE,45,0.0,0.0,69,0.00,CLR,,0.00,WeatherDisplay:10.37,2012-12-31 14:39:00,
2013-01-01 01:44:00,72.1,61.4,29.84,East,97,0.0,0.0,69,0.00,CLR,,0.00,WeatherDisplay:10.37,2012-12-31 14:44:00,
2013-01-01 01:50:00,72.0,61.2,29.84,SSE,165,0.0,0.0,69,0.00,CLR,,0.00,WeatherDisplay:10.37,2012-12-31 14:50:00,
2013-01-01 01:54:00,71.8,61.1,29.83,SE,127,0.0,0.0,69,0.00,CLR,,0.00,WeatherDisplay:10.37,2012-12-31 14:54:00,
2013-01-01 01:59:00,71.5,60.8,29.83,SSE,153,0.0,0.0,69,0.00,CLR,,0.00,WeatherDisplay:10.37,2012-12-31 14:59:00,
2013-01-01 02:04:00,71.4,60.7,29.83,NE,45,0.0,0.0,69,0.00,CLR,,0.00,WeatherDisplay:10.37,2012-12-31 15:04:00,
2013-01-01 02:09:00,71.2,60.5,29.83,ENE,68,0.0,0.0,69,0.00,CLR,,0.00,WeatherDisplay:10.37,2012-12-31 15:09:00,
2013-01-01 02:14:00,71.2,60.5,29.83,NE,55,0.0,0.0,69,0.00,CLR,,0.00,WeatherDisplay:10.37,2012-12-31 15:14:00,
2013-01-01 02:20:00,71.2,61.0,29.83,NNE,18,0.0,1.0,70,0.00,CLR,,0.00,WeatherDisplay:10.37,2012-12-31 15:20:00,
2013-01-01 02:24:00,70.9,60.6,29.82,NW,318,0.0,0.0,70,0.00,CLR,,0.00,WeatherDisplay:10.37,2012-12-31 15:24:00,
2013-01-01 02:29:00,70.7,60.4,29.82,WNW,289,0.0,0.0,70,0.00,CLR,,0.00,WeatherDisplay:10.37,2012-12-31 15:29:00,
2013-01-01 02:34:00,70.7,60.4,29.82,NNE,16,0.0,0.0,70,0.00,CLR,,0.00,WeatherDisplay:10.37,2012-12-31 15:34:00,
2013-01-01 02:40:00,70.5,60.7,29.82,North,4,0.0,0.0,71,0.00,CLR,,0.00,WeatherDisplay:10.37,2012-12-31 15:40:00,
2013-01-01 02:45:00,70.5,60.7,29.82,NNE,22,0.0,0.0,71,0.00,CLR,,0.00,WeatherDisplay:10.37,2012-12-31 15:45:00,
2013-01-01 02:50:00,70.5,60.7,29.82,North,358,0.0,2.0,71,0.00,CLR,,0.00,WeatherDisplay:10.37,2012-12-31 15:50:00,
2013-01-01 02:55:00,70.3,60.5,29.82,NW,315,2.5,2.5,71,0.00,CLR,,0.00,WeatherDisplay:10.37,2012-12-31 15:55:00,
2013-01-01 03:00:00,70.3,60.5,29.82,West,270,1.1,0.0,71,0.00,CLR,,0.00,WeatherDisplay:10.37,2012-12-31 16:00:00,
2013-01-01 03:05:00,70.3,60.5,29.83,NNE,22,1.1,1.1,71,0.00,CLR,,0.00,WeatherDisplay:10.37,2012-12-31 16:05:00,
2013-01-01 03:10:00,70.2,60.7,29.82,North,0,1.1,1.1,72,0.00,CLR,,0.00,WeatherDisplay:10.37,2012-12-31 16:10:00,
2013-01-01 03:16:00,70.3,60.9,29.82,SE,135,0.0,0.0,72,0.00,CLR,,0.00,WeatherDisplay:10.37,2012-12-31 16:16:00,
2013-01-01 03:21:00,70.3,60.9,29.82,ENE,68,0.0,0.0,72,0.00,CLR,,0.00,WeatherDisplay:10.37,2012-12-31 16:21:00,
2013-01-01 03:26:00,70.2,60.7,29.82,ESE,112,0.0,0.0,72,0.00,CLR,,0.00,WeatherDisplay:10.37,2012-12-31 16:26:00,
2013-01-01 03:31:00,70.0,60.5,29.82,NE,45,0.0,0.0,72,0.00,CLR,,0.00,WeatherDisplay:10.37,2012-12-31 16:31:00,
2013-01-01 03:36:00,70.0,60.5,29.82,WNW,292,0.0,0.0,72,0.00,CLR,,0.00,WeatherDisplay:10.37,2012-12-31 16:36:00,
2013-01-01 03:42:00,69.6,60.2,29.82,WSW,248,0.0,0.0,72,0.00,CLR,,0.00,WeatherDisplay:10.37,2012-12-31 16:42:00,
2013-01-01 03:47:00,69.6,60.2,29.82,NE,45,0.0,0.0,72,0.00,CLR,,0.00,WeatherDisplay:10.37,2012-12-31 16:47:00,
2013-01-01 03:52:00,69.6,60.2,29.82,NNE,22,1.6,1.6,72,0.00,CLR,,0.00,WeatherDisplay:10.37,2012-12-31 16:52:00,
2013-01-01 03:57:00,69.6,60.6,29.82,NE,45,0.0,0.0,73,0.00,CLR,,0.00,WeatherDisplay:10.37,2012-12-31 16:57:00,
2013-01-01 04:02:00,69.4,60.4,29.82,NE,45,0.0,0.0,73,0.00,CLR,,0.00,WeatherDisplay:10.37,2012-12-31 17:02:00,
2013-01-01 04:08:00,69.4,60.4,29.82,North,0,2.3,2.3,73,0.00,CLR,,0.00,WeatherDisplay:10.37,2012-12-31 17:08:00,
2013-01-01 04:13:00,69.3,60.2,29.82,North,0,2.3,2.3,73,0.00,CLR,,0.00,WeatherDisplay:10.37,2012-12-31 17:13:00,
2013-01-01 04:18:00,69.1,60.1,29.82,North,0,2.3,2.3,73,0.00,CLR,,0.00,WeatherDisplay:10.37,2012-12-31 17:18:00,
2013-01-01 04:24:00,69.1,60.4,29.82,North,0,2.3,2.3,74,0.00,CLR,,0.00,WeatherDisplay:10.37,2012-12-31 17:24:00,
2013-01-01 04:29:00,68.9,60.3,29.82,NNE,22,2.3,2.3,74,0.00,CLR,,0.00,WeatherDisplay:10.37,2012-12-31 17:29:00,
2013-01-01 04:34:00,69.1,60.4,29.82,NNW,338,2.3,2.3,74,0.00,CLR,,0.00,WeatherDisplay:10.37,2012-12-31 17:34:00,
2013-01-01 04:39:00,69.1,60.4,29.82,NNW,338,4.0,4.0,74,0.00,CLR,,0.00,WeatherDisplay:10.37,2012-12-31 17:39:00,
2013-01-01 04:44:00,69.1,60.4,29.82,NNE,22,3.5,3.5,74,0.00,CLR,,0.00,WeatherDisplay:10.37,2012-12-31 17:44:00,
2013-01-01 04:49:00,69.4,61.2,29.83,NNW,338,5.1,5.1,75,0.00,CLR,,0.00,WeatherDisplay:10.37,2012-12-31 17:49:00,
2013-01-01 04:54:00,69.6,61.3,29.83,NNE,22,4.6,4.6,75,0.00,CLR,,0.00,WeatherDisplay:10.37,2012-12-31 17:54:00,
2013-01-01 04:59:00,69.8,61.1,29.83,North,0,3.8,3.8,74,0.00,CLR,,0.00,WeatherDisplay:10.37,2012-12-31 17:59:00,
2013-01-01 05:04:00,70.0,61.3,29.83,North,0,4.6,4.6,74,0.00,CLR,,0.00,WeatherDisplay:10.37,2012-12-31 18:04:00,
2013-01-01 05:09:00,70.2,61.5,29.83,North,8,1.0,4.0,74,0.00,CLR,,0.00,WeatherDisplay:10.37,2012-12-31 18:09:00,
2013-01-01 05:14:00,70.2,61.5,29.83,NNE,18,0.0,2.0,74,0.00,CLR,,0.00,WeatherDisplay:10.37,2012-12-31 18:14:00,
2013-01-01 05:19:00,70.3,61.7,29.83,NE,36,0.0,1.0,74,0.00,CLR,,0.00,WeatherDisplay:10.37,2012-12-31 18:19:00,
2013-01-01 05:24:00,70.3,61.6,29.83,East,80,0.0,1.0,74,0.00,CLR,,0.00,WeatherDisplay:10.37,2012-12-31 18:24:00,
2013-01-01 05:29:00,70.3,61.7,29.83,ESE,121,0.0,2.0,74,0.00,CLR,,0.00,WeatherDisplay:10.37,2012-12-31 18:29:00,
2013-01-01 05:34:00,70.3,61.7,29.83,SSE,158,2.3,2.3,74,0.00,CLR,,0.00,WeatherDisplay:10.37,2012-12-31 18:34:00,
2013-01-01 05:40:00,70.3,61.7,29.84,SE,127,1.0,3.0,74,0.00,CLR,,0.00,WeatherDisplay:10.37,2012-12-31 18:40:00,
2013-01-01 05:45:00,70.3,61.7,29.84,East,90,2.3,2.3,74,0.00,CLR,,0.00,WeatherDisplay:10.37,2012-12-31 18:45:00,
2013-01-01 05:50:00,70.2,61.5,29.85,SE,135,3.5,0.0,74,0.00,CLR,,0.00,WeatherDisplay:10.37,2012-12-31 18:50:00,
2013-01-01 05:55:00,70.3,61.7,29.85,ENE,68,2.5,0.0,74,0.00,CLR,,0.00,WeatherDisplay:10.37,2012-12-31 18:55:00,
2013-01-01 06:00:00,70.3,61.7,29.85,North,0,3.5,3.5,74,0.00,CLR,,0.00,WeatherDisplay:10.37,2012-12-31 19:00:00,
2013-01-01 06:05:00,70.3,61.7,29.85,NE,45,3.5,3.5,74,0.00,CLR,,0.00,WeatherDisplay:10.37,2012-12-31 19:05:00,
2013-01-01 06:10:00,70.3,61.7,29.85,SW,225,2.3,2.3,74,0.00,CLR,,0.00,WeatherDisplay:10.37,2012-12-31 19:10:00,
2013-01-01 06:16:00,70.5,61.8,29.85,ESE,112,2.3,2.3,74,0.00,CLR,,0.00,WeatherDisplay:10.37,2012-12-31 19:16:00,
2013-01-01 06:21:00,70.5,61.8,29.85,North,0,1.1,1.1,74,0.00,CLR,,0.00,WeatherDisplay:10.37,2012-12-31 19:21:00,
2013-01-01 06:26:00,70.7,61.6,29.86,WNW,292,4.6,4.6,73,0.00,CLR,,0.00,WeatherDisplay:10.37,2012-12-31 19:26:00,
2013-01-01 06:31:00,71.2,61.7,29.86,WNW,292,3.5,3.5,72,0.00,CLR,,0.00,WeatherDisplay:10.37,2012-12-31 19:31:00,
2013-01-01 06:36:00,72.1,61.8,29.86,West,270,10.4,10.4,70,0.00,CLR,,0.00,WeatherDisplay:10.37,2012-12-31 19:36:00,
2013-01-01 06:41:00,73.2,62.4,29.86,SW,225,6.9,6.9,69,0.00,CLR,,0.00,WeatherDisplay:10.37,2012-12-31 19:41:00,
2013-01-01 06:47:00,73.9,62.3,29.86,WNW,292,9.2,9.2,67,0.00,CLR,,0.00,WeatherDisplay:10.37,2012-12-31 19:47:00,
2013-01-01 06:52:00,74.8,62.3,29.85,NW,315,5.8,5.8,65,0.00,CLR,,0.00,WeatherDisplay:10.37,2012-12-31 19:52:00,
2013-01-01 06:57:00,75.7,62.2,29.85,NNW,338,6.9,6.9,63,0.00,CLR,,0.00,WeatherDisplay:10.37,2012-12-31 19:57:00,
2013-01-01 07:02:00,76.6,62.2,29.85,South,180,8.9,8.9,61,0.00,CLR,,0.00,WeatherDisplay:10.37,2012-12-31 20:02:00,
2013-01-01 07:08:00,77.4,62.4,29.86,WNW,292,11.5,11.5,60,0.00,CLR,,0.00,WeatherDisplay:10.37,2012-12-31 20:08:00,
2013-01-01 07:13:00,78.1,62.1,29.86,WNW,292,8.1,8.1,58,0.00,CLR,,0.00,WeatherDisplay:10.37,2012-12-31 20:13:00,
2013-01-01 07:18:00,78.6,62.1,29.86,WNW,292,10.4,10.4,57,0.00,CLR,,0.00,WeatherDisplay:10.37,2012-12-31 20:18:00,
2013-01-01 07:23:00,79.3,62.3,29.86,NW,315,10.1,10.1,56,0.00,CLR,,0.00,WeatherDisplay:10.37,2012-12-31 20:23:00,
2013-01-01 07:28:00,79.7,62.1,29.86,North,0,10.4,10.4,55,0.00,CLR,,0.00,WeatherDisplay:10.37,2012-12-31 20:28:00,
2013-01-01 07:33:00,80.2,62.1,29.86,NNW,338,8.1,8.1,54,0.00,CLR,,0.00,WeatherDisplay:10.37,2012-12-31 20:33:00,
2013-01-01 07:38:00,80.4,61.7,29.87,West,270,9.2,9.2,53,0.00,CLR,,0.00,WeatherDisplay:10.37,2012-12-31 20:38:00,
2013-01-01 07:44:00,81.0,62.2,29.87,WNW,292,8.3,8.3,53,0.00,CLR,,0.00,WeatherDisplay:10.37,2012-12-31 20:44:00,
2013-01-01 07:49:00,81.5,61.6,29.87,NNE,22,11.4,11.4,51,0.00,CLR,,0.00,WeatherDisplay:10.37,2012-12-31 20:49:00,
2013-01-01 07:54:00,81.9,61.4,29.87,NW,315,9.2,9.2,50,0.00,CLR,,0.00,WeatherDisplay:10.37,2012-12-31 20:54:00,
2013-01-01 07:59:00,82.2,61.2,29.87,WNW,292,11.4,11.4,49,0.00,CLR,,0.00,WeatherDisplay:10.37,2012-12-31 20:59:00,
2013-01-01 08:04:00,82.8,61.6,29.87,NNW,338,4.6,4.6,49,0.00,CLR,,0.00,WeatherDisplay:10.37,2012-12-31 21:04:00,
2013-01-01 08:09:00,83.1,61.4,29.87,West,270,10.4,10.4,48,0.00,CLR,,0.00,WeatherDisplay:10.37,2012-12-31 21:09:00,
2013-01-01 08:14:00,83.5,61.7,29.87,NW,315,9.2,9.2,48,0.00,CLR,,0.00,WeatherDisplay:10.37,2012-12-31 21:14:00,
2013-01-01 08:19:00,84.0,61.6,29.87,WNW,292,8.1,8.1,47,0.00,CLR,,0.00,WeatherDisplay:10.37,2012-12-31 21:19:00,
2013-01-01 08:24:00,84.4,61.9,29.87,WNW,292,6.0,6.0,47,0.00,CLR,,0.00,WeatherDisplay:10.37,2012-12-31 21:24:00,
2013-01-01 08:29:00,84.7,62.3,29.87,NW,315,11.8,11.8,47,0.00,CLR,,0.00,WeatherDisplay:10.37,2012-12-31 21:29:00,
2013-01-01 08:34:00,85.2,62.7,29.87,NW,306,3.0,12.0,47,0.00,CLR,,0.00,WeatherDisplay:10.37,2012-12-31 21:34:00,
2013-01-01 08:39:00,85.6,62.5,29.87,WNW,300,5.0,12.0,46,0.00,CLR,,0.00,WeatherDisplay:10.37,2012-12-31 21:39:00,
2013-01-01 08:44:00,86.2,62.3,29.87,NW,323,5.0,12.0,45,0.00,CLR,,0.00,WeatherDisplay:10.37,2012-12-31 21:44:00,
2013-01-01 08:49:00,86.7,62.2,29.87,NW,315,8.3,8.3,44,0.00,CLR,,0.00,WeatherDisplay:10.37,2012-12-31 21:49:00,
2013-01-01 08:54:00,87.4,62.8,29.87,NW,315,6.0,14.0,44,0.00,CLR,,0.00,WeatherDisplay:10.37,2012-12-31 21:54:00,
2013-01-01 08:59:00,87.6,61.7,29.87,WSW,248,6.9,6.9,42,0.00,CLR,,0.00,WeatherDisplay:10.37,2012-12-31 21:59:00,
2013-01-01 09:04:00,88.3,62.3,29.88,West,273,2.0,5.0,42,0.00,CLR,,0.00,WeatherDisplay:10.37,2012-12-31 22:04:00,
2013-01-01 09:09:00,88.9,61.4,29.88,NW,312,5.0,8.0,40,0.00,CLR,,0.00,WeatherDisplay:10.37,2012-12-31 22:09:00,
2013-01-01 09:14:00,89.4,61.9,29.88,NW,315,3.0,8.0,40,0.00,CLR,,0.00,WeatherDisplay:10.37,2012-12-31 22:14:00,
2013-01-01 09:19:00,90.0,61.7,29.87,NW,320,1.0,8.0,39,0.00,CLR,,0.00,WeatherDisplay:10.37,2012-12-31 22:19:00,
2013-01-01 09:24:00,90.5,60.6,29.87,NW,325,6.0,11.0,37,0.00,CLR,,0.00,WeatherDisplay:10.37,2012-12-31 22:24:00,
2013-01-01 09:29:00,91.0,60.4,29.87,WNW,292,7.0,13.0,36,0.00,CLR,,0.00,WeatherDisplay:10.37,2012-12-31 22:29:00,
2013-01-01 09:34:00,91.2,59.7,29.87,WNW,296,5.0,9.0,35,0.00,CLR,,0.00,WeatherDisplay:10.37,2012-12-31 22:34:00,
2013-01-01 09:39:00,91.9,60.4,29.87,NW,309,1.0,6.0,35,0.00,CLR,,0.00,WeatherDisplay:10.37,2012-12-31 22:39:00,
2013-01-01 09:44:00,92.4,60.0,29.87,West,280,2.0,17.0,34,0.00,CLR,,0.00,WeatherDisplay:10.37,2012-12-31 22:44:00,
2013-01-01 09:49:00,93.0,59.7,29.87,WNW,285,3.0,12.0,33,0.00,CLR,,0.00,WeatherDisplay:10.37,2012-12-31 22:49:00,
2013-01-01 09:54:00,93.4,60.0,29.86,WNW,303,1.0,12.0,33,0.00,CLR,,0.00,WeatherDisplay:10.37,2012-12-31 22:54:00,
2013-01-01 09:59:00,93.9,60.4,29.87,WNW,303,3.0,6.0,33,0.00,CLR,,0.00,WeatherDisplay:10.37,2012-12-31 22:59:00,
2013-01-01 10:04:00,94.2,59.0,29.86,WNW,287,7.0,12.0,31,0.00,CLR,,0.00,WeatherDisplay:10.37,2012-12-31 23:04:00,
2013-01-01 10:09:00,94.3,59.0,29.86,WNW,295,3.0,14.0,31,0.00,CLR,,0.00,WeatherDisplay:10.37,2012-12-31 23:09:00,
2013-01-01 10:14:00,94.8,59.5,29.86,WNW,282,6.0,15.0,31,0.00,CLR,,0.00,WeatherDisplay:10.37,2012-12-31 23:14:00,
2013-01-01 10:19:00,95.1,58.8,29.86,WNW,297,6.0,14.0,30,0.00,CLR,,0.00,WeatherDisplay:10.37,2012-12-31 23:19:00,
2013-01-01 10:24:00,95.2,58.9,29.86,WNW,301,2.0,13.0,30,0.00,CLR,,0.00,WeatherDisplay:10.37,2012-12-31 23:24:00,
2013-01-01 10:29:00,95.5,59.1,29.86,NW,315,5.0,13.0,30,0.00,CLR,,0.00,WeatherDisplay:10.37,2012-12-31 23:29:00,
2013-01-01 10:34:00,95.7,59.3,29.85,NW,321,3.0,9.0,30,0.00,CLR,,0.00,WeatherDisplay:10.37,2012-12-31 23:34:00,
2013-01-01 10:39:00,96.4,58.9,29.85,NW,312,9.0,17.0,29,0.00,CLR,,0.00,WeatherDisplay:10.37,2012-12-31 23:39:00,
2013-01-01 10:44:00,96.6,59.1,29.85,WNW,295,5.0,17.0,29,0.00,CLR,,0.00,WeatherDisplay:10.37,2012-12-31 23:44:00,
2013-01-01 10:49:00,97.0,59.5,29.84,ESE,112,9.2,9.2,29,0.00,CLR,,0.00,WeatherDisplay:10.37,2012-12-31 23:49:00,
2013-01-01 10:54:00,97.3,57.8,29.84,NW,320,9.0,14.0,27,0.00,CLR,,0.00,WeatherDisplay:10.37,2012-12-31 23:54:00,
2013-01-01 10:59:00,97.4,57.8,29.84,NW,306,3.0,10.0,27,0.00,CLR,,0.00,WeatherDisplay:10.37,2012-12-31 23:59:00,
2013-01-01 11:04:00,97.7,58.1,29.84,WNW,297,6.0,20.0,27,0.00,CLR,,0.00,WeatherDisplay:10.37,2013-01-01 00:04:00,
2013-01-01 11:09:00,97.9,57.2,29.83,WNW,298,6.0,20.0,26,0.00,CLR,,0.00,WeatherDisplay:10.37,2013-01-01 00:09:00,
2013-01-01 11:15:00,98.4,58.7,29.83,WNW,292,9.2,9.2,27,0.00,CLR,,0.00,WeatherDisplay:10.37,2013-01-01 00:15:00,
2013-01-01 11:20:00,98.4,57.6,29.83,NNE,22,9.2,9.2,26,0.00,CLR,,0.00,WeatherDisplay:10.37,2013-01-01 00:20:00,
2013-01-01 11:25:00,98.8,56.8,29.83,NNW,338,13.8,13.8,25,0.00,CLR,,0.00,WeatherDisplay:10.37,2013-01-01 00:25:00,
2013-01-01 11:31:00,98.6,56.7,29.83,NNE,22,17.3,17.3,25,0.00,CLR,,0.00,WeatherDisplay:10.37,2013-01-01 00:31:00,
2013-01-01 11:36:00,98.8,56.8,29.83,NNW,338,15.9,15.9,25,0.00,CLR,,0.00,WeatherDisplay:10.37,2013-01-01 00:36:00,
2013-01-01 11:41:00,99.1,57.1,29.83,NW,315,18.4,18.4,25,0.00,CLR,,0.00,WeatherDisplay:10.37,2013-01-01 00:41:00,
2013-01-01 11:46:00,99.1,57.1,29.82,NNW,338,11.5,11.5,25,0.00,CLR,,0.00,WeatherDisplay:10.37,2013-01-01 00:46:00,
2013-01-01 11:51:00,99.5,57.4,29.82,North,0,16.1,16.1,25,0.00,CLR,,0.00,WeatherDisplay:10.37,2013-01-01 00:51:00,
2013-01-01 11:56:00,100.0,57.9,29.81,West,270,17.2,17.2,25,0.00,CLR,,0.00,WeatherDisplay:10.37,2013-01-01 00:56:00,
2013-01-01 12:02:00,100.6,58.4,29.81,WNW,292,12.7,12.7,25,0.00,CLR,,0.00,WeatherDisplay:10.37,2013-01-01 01:02:00,
2013-01-01 12:07:00,100.9,57.5,29.81,NNE,22,10.5,10.5,24,0.00,CLR,,0.00,WeatherDisplay:10.37,2013-01-01 01:07:00,
2013-01-01 12:12:00,101.3,57.8,29.81,NW,315,18.4,18.4,24,0.00,CLR,,0.00,WeatherDisplay:10.37,2013-01-01 01:12:00,
2013-01-01 12:17:00,101.5,58.0,29.81,WNW,292,17.3,17.3,24,0.00,CLR,,0.00,WeatherDisplay:10.37,2013-01-01 01:17:00,
2013-01-01 12:22:00,101.5,58.0,29.81,WSW,248,6.9,6.9,24,0.00,CLR,,0.00,WeatherDisplay:10.37,2013-01-01 01:22:00,
2013-01-01 12:27:00,102.2,58.6,29.82,WNW,292,11.2,11.2,24,0.00,CLR,,0.00,WeatherDisplay:10.37,2013-01-01 01:27:00,
2013-01-01 12:32:00,102.4,57.5,29.81,NE,45,13.8,13.8,23,0.00,CLR,,0.00,WeatherDisplay:10.37,2013-01-01 01:32:00,
2013-01-01 12:38:00,102.7,57.8,29.81,North,0,10.4,10.4,23,0.00,CLR,,0.00,WeatherDisplay:10.37,2013-01-01 01:38:00,
2013-01-01 12:43:00,103.3,58.3,29.81,WSW,248,13.8,13.8,23,0.00,CLR,,0.00,WeatherDisplay:10.37,2013-01-01 01:43:00,
2013-01-01 12:48:00,103.6,57.3,29.81,West,270,8.1,8.1,22,0.00,CLR,,0.00,WeatherDisplay:10.37,2013-01-01 01:48:00,
2013-01-01 12:53:00,103.8,57.5,29.81,NNW,338,4.6,4.6,22,0.00,CLR,,0.00,WeatherDisplay:10.37,2013-01-01 01:53:00,
2013-01-01 12:58:00,104.5,59.3,29.81,SW,225,5.1,5.1,23,0.00,CLR,,0.00,WeatherDisplay:10.37,2013-01-01 01:58:00,
2013-01-01 13:03:00,104.5,66.9,29.81,SSW,202,13.8,13.8,30,0.00,CLR,,0.00,WeatherDisplay:10.37,2013-01-01 02:03:00,
2013-01-01 13:08:00,103.1,67.5,29.81,SW,225,12.7,12.7,32,0.00,CLR,,0.00,WeatherDisplay:10.37,2013-01-01 02:08:00,
2013-01-01 13:14:00,101.5,68.7,29.81,ESE,112,18.4,18.4,35,0.00,CLR,,0.00,WeatherDisplay:10.37,2013-01-01 02:14:00,
2013-01-01 13:19:00,100.2,69.2,29.81,West,270,8.9,8.9,37,0.00,CLR,,0.00,WeatherDisplay:10.37,2013-01-01 02:19:00,
2013-01-01 13:24:00,99.9,69.7,29.81,SSE,158,9.2,9.2,38,0.00,CLR,,0.00,WeatherDisplay:10.37,2013-01-01 02:24:00,
2013-01-01 13:29:00,99.7,70.3,29.81,South,180,6.9,6.9,39,0.00,CLR,,0.00,WeatherDisplay:10.37,2013-01-01 02:29:00,
2013-01-01 13:34:00,100.2,70.8,29.81,South,180,6.7,6.7,39,0.00,CLR,,0.00,WeatherDisplay:10.37,2013-01-01 02:34:00,
2013-01-01 13:39:00,100.6,71.1,29.80,SSE,158,8.1,8.1,39,0.00,CLR,,0.00,WeatherDisplay:10.37,2013-01-01 02:39:00,
2013-01-01 13:44:00,101.5,71.9,29.79,SSE,158,9.2,9.2,39,0.00,CLR,,0.00,WeatherDisplay:10.37,2013-01-01 02:44:00,
2013-01-01 13:49:00,102.4,72.0,29.79,SSE,159,7.0,14.0,38,0.00,CLR,,0.00,WeatherDisplay:10.37,2013-01-01 02:49:00,
2013-01-01 13:55:00,102.6,72.1,29.79,South,180,6.9,6.9,38,0.00,CLR,,0.00,WeatherDisplay:10.37,2013-01-01 02:55:00,
2013-01-01 14:00:00,101.8,71.5,29.78,ESE,112,9.2,9.2,38,0.00,CLR,,0.00,WeatherDisplay:10.37,2013-01-01 03:00:00,
2013-01-01 14:05:00,101.3,71.0,29.78,SE,135,6.9,6.9,38,0.00,CLR,,0.00,WeatherDisplay:10.37,2013-01-01 03:05:00,
2013-01-01 14:10:00,100.9,71.4,29.78,SE,135,8.3,8.3,39,0.00,CLR,,0.00,WeatherDisplay:10.37,2013-01-01 03:10:00,
2013-01-01 14:16:00,100.9,69.9,29.79,SE,135,10.4,10.4,37,0.00,CLR,,0.00,WeatherDisplay:10.37,2013-01-01 03:16:00,
2013-01-01 14:21:00,100.2,70.8,29.78,South,180,8.1,8.1,39,0.00,CLR,,0.00,WeatherDisplay:10.37,2013-01-01 03:21:00,
2013-01-01 14:26:00,100.2,70.8,29.78,WSW,248,14.7,14.7,39,0.00,CLR,,0.00,WeatherDisplay:10.37,2013-01-01 03:26:00,
2013-01-01 14:31:00,98.8,69.5,29.78,SE,135,8.1,8.1,39,0.00,CLR,,0.00,WeatherDisplay:10.37,2013-01-01 03:31:00,
2013-01-01 14:36:00,97.7,70.0,29.78,SSE,158,15.0,15.0,41,0.00,CLR,,0.00,WeatherDisplay:10.37,2013-01-01 03:36:00,
2013-01-01 14:41:00,96.4,69.6,29.78,SSE,158,10.4,10.4,42,0.00,CLR,,0.00,WeatherDisplay:10.37,2013-01-01 03:41:00,
2013-01-01 14:46:00,95.4,69.3,29.78,WSW,248,9.2,9.2,43,0.00,CLR,,0.00,WeatherDisplay:10.37,2013-01-01 03:46:00,
2013-01-01 14:52:00,95.2,69.8,29.78,West,270,8.3,8.3,44,0.00,CLR,,0.00,WeatherDisplay:10.37,2013-01-01 03:52:00,
2013-01-01 14:57:00,94.3,69.0,29.78,SSE,158,8.7,8.7,44,0.00,CLR,,0.00,WeatherDisplay:10.37,2013-01-01 03:57:00,
2013-01-01 15:02:00,93.0,68.5,29.78,SSE,158,9.2,9.2,45,0.00,CLR,,0.00,WeatherDisplay:10.37,2013-01-01 04:02:00,
2013-01-01 15:07:00,91.9,68.8,29.78,SW,225,10.4,10.4,47,0.00,CLR,,0.00,WeatherDisplay:10.37,2013-01-01 04:07:00,
2013-01-01 15:12:00,91.2,68.8,29.77,SSE,158,9.2,9.2,48,0.00,CLR,,0.00,WeatherDisplay:10.37,2013-01-01 04:12:00,
2013-01-01 15:18:00,91.6,69.1,29.77,WSW,248,12.7,12.7,48,0.00,CLR,,0.00,WeatherDisplay:10.37,2013-01-01 04:18:00,
2013-01-01 15:23:00,91.2,68.8,29.77,SW,225,10.4,10.4,48,0.00,CLR,,0.00,WeatherDisplay:10.37,2013-01-01 04:23:00,
2013-01-01 15:28:00,90.1,68.4,29.78,SW,225,12.7,12.7,49,0.00,CLR,,0.00,WeatherDisplay:10.37,2013-01-01 04:28:00,
2013-01-01 15:33:00,89.1,68.6,29.77,SSW,202,10.4,10.4,51,0.00,CLR,,0.00,WeatherDisplay:10.37,2013-01-01 04:33:00,
2013-01-01 15:38:00,88.5,68.6,29.77,SSE,158,4.6,4.6,52,0.00,CLR,,0.00,WeatherDisplay:10.37,2013-01-01 04:38:00,
2013-01-01 15:43:00,88.5,68.6,29.77,SSE,158,5.1,5.1,52,0.00,CLR,,0.00,WeatherDisplay:10.37,2013-01-01 04:43:00,
2013-01-01 15:49:00,88.9,69.0,29.76,SSE,158,8.1,8.1,52,0.00,CLR,,0.00,WeatherDisplay:10.37,2013-01-01 04:49:00,
2013-01-01 15:54:00,88.7,68.8,29.76,SW,225,9.6,9.6,52,0.00,CLR,,0.00,WeatherDisplay:10.37,2013-01-01 04:54:00,
2013-01-01 15:59:00,88.9,69.5,29.76,South,180,10.4,10.4,53,0.00,CLR,,0.00,WeatherDisplay:10.37,2013-01-01 04:59:00,
2013-01-01 16:00:00,89.2,70.4,29.76,SSW,202,13.2,13.2,54,0.00,CLR,,0.00,WeatherDisplay:10.37,2013-01-01 05:00:00,
2013-01-01 16:02:00,89.4,70.0,29.76,SSW,202,12.7,12.7,53,0.00,CLR,,0.00,WeatherDisplay:10.37,2013-01-01 05:02:00,
2013-01-01 16:03:00,89.4,69.5,29.76,SSE,158,10.4,10.4,52,0.00,CLR,,0.00,WeatherDisplay:10.37,2013-01-01 05:03:00,
2013-01-01 16:04:00,89.4,69.5,29.76,South,180,9.2,9.2,52,0.00,CLR,,0.00,WeatherDisplay:10.37,2013-01-01 05:04:00,
2013-01-01 16:09:00,89.2,69.3,29.75,South,180,8.1,8.1,52,0.00,CLR,,0.00,WeatherDisplay:10.37,2013-01-01 05:09:00,
2013-01-01 16:14:00,88.7,68.8,29.75,SSE,158,5.8,5.8,52,0.00,CLR,,0.00,WeatherDisplay:10.37,2013-01-01 05:14:00,
2013-01-01 16:19:00,88.2,68.9,29.75,SSE,168,2.0,7.0,53,0.00,CLR,,0.00,WeatherDisplay:10.37,2013-01-01 05:19:00,
2013-01-01 16:24:00,88.0,69.3,29.75,South,169,1.0,7.0,54,0.00,CLR,,0.00,WeatherDisplay:10.37,2013-01-01 05:24:00,
2013-01-01 16:29:00,88.1,69.4,29.75,South,184,3.0,5.0,54,0.00,CLR,,0.00,WeatherDisplay:10.37,2013-01-01 05:29:00,
2013-01-01 16:35:00,88.2,69.4,29.75,SE,135,3.5,3.5,54,0.00,CLR,,0.00,WeatherDisplay:10.37,2013-01-01 05:35:00,
2013-01-01 16:40:00,88.2,70.0,29.74,SSE,158,3.5,3.5,55,0.00,CLR,,0.00,WeatherDisplay:10.37,2013-01-01 05:40:00,
2013-01-01 16:45:00,89.1,71.3,29.74,SSW,202,6.9,6.9,56,0.00,CLR,,0.00,WeatherDisplay:10.37,2013-01-01 05:45:00,
2013-01-01 16:51:00,90.1,71.2,29.74,SSE,158,6.9,6.9,54,0.00,CLR,,0.00,WeatherDisplay:10.37,2013-01-01 05:51:00,
2013-01-01 16:56:00,90.5,71.6,29.74,SSW,202,5.8,5.8,54,0.00,CLR,,0.00,WeatherDisplay:10.37,2013-01-01 05:56:00,
2013-01-01 17:01:00,90.3,70.9,29.73,SE,135,3.5,3.5,53,0.00,CLR,,0.00,WeatherDisplay:10.37,2013-01-01 06:01:00,
2013-01-01 17:06:00,90.3,70.9,29.73,South,180,5.8,5.8,53,0.00,CLR,,0.00,WeatherDisplay:10.37,2013-01-01 06:06:00,
2013-01-01 17:12:00,90.3,70.9,29.73,SE,135,6.9,6.9,53,0.00,CLR,,0.00,WeatherDisplay:10.37,2013-01-01 06:12:00,
2013-01-01 17:17:00,91.2,71.7,29.73,ESE,112,4.9,4.9,53,0.00,CLR,,0.00,WeatherDisplay:10.37,2013-01-01 06:17:00,
2013-01-01 17:22:00,91.8,71.6,29.72,East,90,3.5,3.5,52,0.00,CLR,,0.00,WeatherDisplay:10.37,2013-01-01 06:22:00,
2013-01-01 17:27:00,91.8,71.1,29.73,South,180,3.4,3.4,51,0.00,CLR,,0.00,WeatherDisplay:10.37,2013-01-01 06:27:00,
2013-01-01 17:33:00,91.6,71.5,29.72,SSE,158,6.9,6.9,52,0.00,CLR,,0.00,WeatherDisplay:10.37,2013-01-01 06:33:00,
2013-01-01 17:38:00,91.9,71.8,29.72,SSE,158,3.5,3.5,52,0.00,CLR,,0.00,WeatherDisplay:10.37,2013-01-01 06:38:00,
2013-01-01 17:43:00,92.5,71.7,29.72,SW,225,3.8,3.8,51,0.00,CLR,,0.00,WeatherDisplay:10.37,2013-01-01 06:43:00,
2013-01-01 17:48:00,92.8,72.1,29.72,SE,135,5.8,5.8,51,0.00,CLR,,0.00,WeatherDisplay:10.37,2013-01-01 06:48:00,
2013-01-01 17:53:00,92.8,72.1,29.72,SSE,158,4.6,4.6,51,0.00,CLR,,0.00,WeatherDisplay:10.37,2013-01-01 06:53:00,
2013-01-01 17:58:00,92.7,71.3,29.72,SSW,202,4.6,4.6,50,0.00,CLR,,0.00,WeatherDisplay:10.37,2013-01-01 06:58:00,
2013-01-01 18:03:00,92.1,71.4,29.72,South,180,4.6,4.6,51,0.00,CLR,,0.00,WeatherDisplay:10.37,2013-01-01 07:03:00,
2013-01-01 18:08:00,91.9,71.2,29.72,SSE,158,6.3,6.3,51,0.00,CLR,,0.00,WeatherDisplay:10.37,2013-01-01 07:08:00,
2013-01-01 18:14:00,91.6,71.5,29.72,SSW,202,3.5,3.5,52,0.00,CLR,,0.00,WeatherDisplay:10.37,2013-01-01 07:14:00,
2013-01-01 18:19:00,91.6,71.5,29.72,SSW,202,5.8,5.8,52,0.00,CLR,,0.00,WeatherDisplay:10.37,2013-01-01 07:19:00,
2013-01-01 18:24:00,91.6,71.5,29.72,South,180,5.8,5.8,52,0.00,CLR,,0.00,WeatherDisplay:10.37,2013-01-01 07:24:00,
2013-01-01 18:29:00,91.2,71.1,29.72,SE,135,5.8,5.8,52,0.00,CLR,,0.00,WeatherDisplay:10.37,2013-01-01 07:29:00,
2013-01-01 18:34:00,91.2,71.1,29.72,SSE,164,5.0,9.0,52,0.00,CLR,,0.00,WeatherDisplay:10.37,2013-01-01 07:34:00,
2013-01-01 18:39:00,91.0,70.4,29.72,SSE,157,3.0,7.0,51,0.00,CLR,,0.00,WeatherDisplay:10.37,2013-01-01 07:39:00,
2013-01-01 18:45:00,90.5,70.5,29.72,SSE,158,6.9,6.9,52,0.00,CLR,,0.00,WeatherDisplay:10.37,2013-01-01 07:45:00,
2013-01-01 18:50:00,89.8,69.2,29.73,SSE,158,8.5,8.5,51,0.00,CLR,,0.00,WeatherDisplay:10.37,2013-01-01 07:50:00,
2013-01-01 18:55:00,88.9,68.4,29.72,SSW,202,3.5,3.5,51,0.00,CLR,,0.00,WeatherDisplay:10.37,2013-01-01 07:55:00,
2013-01-01 19:00:00,88.3,68.5,29.73,SSW,202,9.2,9.2,52,0.00,CLR,,0.00,WeatherDisplay:10.37,2013-01-01 08:00:00,
2013-01-01 19:05:00,87.4,67.7,29.73,South,180,5.8,5.8,52,0.00,CLR,,0.00,WeatherDisplay:10.37,2013-01-01 08:05:00,
2013-01-01 19:11:00,86.7,67.5,29.73,SE,135,6.9,6.9,53,0.00,CLR,,0.00,WeatherDisplay:10.37,2013-01-01 08:11:00,
2013-01-01 19:16:00,86.2,67.6,29.73,SSW,202,5.1,5.1,54,0.00,CLR,,0.00,WeatherDisplay:10.37,2013-01-01 08:16:00,
2013-01-01 19:21:00,85.6,67.6,29.73,SW,225,4.6,4.6,55,0.00,CLR,,0.00,WeatherDisplay:10.37,2013-01-01 08:21:00,
2013-01-01 19:26:00,84.9,68.0,29.73,South,180,4.6,4.6,57,0.00,CLR,,0.00,WeatherDisplay:10.37,2013-01-01 08:26:00,
2013-01-01 19:31:00,84.7,68.3,29.73,SSE,158,5.8,5.8,58,0.00,CLR,,0.00,WeatherDisplay:10.37,2013-01-01 08:31:00,
2013-01-01 19:37:00,84.4,68.5,29.73,SSE,158,4.9,4.9,59,0.00,CLR,,0.00,WeatherDisplay:10.37,2013-01-01 08:37:00,
2013-01-01 19:42:00,84.0,68.6,29.73,South,180,5.8,5.8,60,0.00,CLR,,0.00,WeatherDisplay:10.37,2013-01-01 08:42:00,
2013-01-01 19:47:00,83.8,69.0,29.73,SSE,158,4.6,4.6,61,0.00,CLR,,0.00,WeatherDisplay:10.37,2013-01-01 08:47:00,
2013-01-01 19:52:00,83.5,69.1,29.73,SSW,202,4.6,4.6,62,0.00,CLR,,0.00,WeatherDisplay:10.37,2013-01-01 08:52:00,
2013-01-01 19:57:00,83.1,68.7,29.73,SW,225,5.8,5.8,62,0.00,CLR,,0.00,WeatherDisplay:10.37,2013-01-01 08:57:00,
2013-01-01 20:03:00,82.8,68.9,29.74,WSW,248,3.5,3.5,63,0.00,CLR,,0.00,WeatherDisplay:10.37,2013-01-01 09:03:00,
2013-01-01 20:08:00,82.2,68.4,29.74,SE,135,4.6,4.6,63,0.00,CLR,,0.00,WeatherDisplay:10.37,2013-01-01 09:08:00,
2013-01-01 20:13:00,82.0,68.7,29.74,SSE,158,4.9,4.9,64,0.00,CLR,,0.00,WeatherDisplay:10.37,2013-01-01 09:13:00,
2013-01-01 20:18:00,81.7,68.8,29.74,South,180,4.6,4.6,65,0.00,CLR,,0.00,WeatherDisplay:10.37,2013-01-01 09:18:00,
2013-01-01 20:23:00,81.3,68.9,29.74,South,180,5.8,5.8,66,0.00,CLR,,0.00,WeatherDisplay:10.37,2013-01-01 09:23:00,
2013-01-01 20:28:00,81.1,68.7,29.74,SSW,202,4.6,4.6,66,0.00,CLR,,0.00,WeatherDisplay:10.37,2013-01-01 09:28:00,
2013-01-01 20:33:00,80.8,68.8,29.74,SSE,158,3.5,3.5,67,0.00,CLR,,0.00,WeatherDisplay:10.37,2013-01-01 09:33:00,
2013-01-01 20:39:00,80.4,68.5,29.74,SSE,158,3.5,3.5,67,0.00,CLR,,0.00,WeatherDisplay:10.37,2013-01-01 09:39:00,
2013-01-01 20:44:00,80.2,68.3,29.74,SE,135,4.6,4.6,67,0.00,CLR,,0.00,WeatherDisplay:10.37,2013-01-01 09:44:00,
2013-01-01 20:49:00,80.1,68.5,29.74,South,180,2.3,2.3,68,0.00,CLR,,0.00,WeatherDisplay:10.37,2013-01-01 09:49:00,
2013-01-01 20:54:00,80.1,68.5,29.74,South,180,2.3,2.3,68,0.00,CLR,,0.00,WeatherDisplay:10.37,2013-01-01 09:54:00,
2013-01-01 20:59:00,79.9,68.4,29.74,SSE,158,2.3,2.3,68,0.00,CLR,,0.00,WeatherDisplay:10.37,2013-01-01 09:59:00,
2013-01-01 21:04:00,79.9,68.4,29.74,SSE,158,1.1,1.1,68,0.00,CLR,,0.00,WeatherDisplay:10.37,2013-01-01 10:04:00,
2013-01-01 21:09:00,79.9,68.8,29.74,South,180,3.5,3.5,69,0.00,CLR,,0.00,WeatherDisplay:10.37,2013-01-01 10:09:00,
2013-01-01 21:14:00,79.5,68.5,29.74,SSE,168,2.0,3.0,69,0.00,CLR,,0.00,WeatherDisplay:10.37,2013-01-01 10:14:00,
2013-01-01 21:19:00,79.5,68.9,29.74,SSE,162,1.0,3.0,70,0.00,CLR,,0.00,WeatherDisplay:10.37,2013-01-01 10:19:00,
2013-01-01 21:24:00,79.3,68.7,29.74,SSE,165,1.0,2.0,70,0.00,CLR,,0.00,WeatherDisplay:10.37,2013-01-01 10:24:00,
2013-01-01 21:29:00,79.2,68.5,29.73,SSE,158,2.3,2.3,70,0.00,CLR,,0.00,WeatherDisplay:10.37,2013-01-01 10:29:00,
2013-01-01 21:35:00,79.0,68.8,29.73,SSE,158,2.3,2.3,71,0.00,CLR,,0.00,WeatherDisplay:10.37,2013-01-01 10:35:00,
2013-01-01 21:40:00,78.6,68.4,29.73,South,180,3.5,3.5,71,0.00,CLR,,0.00,WeatherDisplay:10.37,2013-01-01 10:40:00,
2013-01-01 21:45:00,78.6,68.4,29.74,SSW,202,2.3,2.3,71,0.00,CLR,,0.00,WeatherDisplay:10.37,2013-01-01 10:45:00,
2013-01-01 21:50:00,78.4,68.3,29.74,SSW,202,2.3,2.3,71,0.00,CLR,,0.00,WeatherDisplay:10.37,2013-01-01 10:50:00,
2013-01-01 21:55:00,78.1,68.3,29.74,SSE,158,3.5,3.5,72,0.00,CLR,,0.00,WeatherDisplay:10.37,2013-01-01 10:55:00,
2013-01-01 22:01:00,77.9,68.1,29.74,South,180,2.7,2.7,72,0.00,CLR,,0.00,WeatherDisplay:10.37,2013-01-01 11:01:00,
2013-01-01 22:06:00,77.7,68.0,29.75,SSW,202,1.3,1.3,72,0.00,CLR,,0.00,WeatherDisplay:10.37,2013-01-01 11:06:00,
2013-01-01 22:11:00,77.5,67.8,29.75,WSW,248,0.0,0.0,72,0.00,CLR,,0.00,WeatherDisplay:10.37,2013-01-01 11:11:00,
2013-01-01 22:16:00,77.4,67.6,29.75,WSW,248,1.1,1.1,72,0.00,CLR,,0.00,WeatherDisplay:10.37,2013-01-01 11:16:00,
2013-01-01 22:21:00,77.2,67.9,29.75,NW,315,0.0,0.0,73,0.00,CLR,,0.00,WeatherDisplay:10.37,2013-01-01 11:21:00,
2013-01-01 22:27:00,77.2,67.9,29.75,East,90,2.3,2.3,73,0.00,CLR,,0.00,WeatherDisplay:10.37,2013-01-01 11:27:00,
2013-01-01 22:32:00,77.0,67.7,29.74,ENE,68,1.3,1.3,73,0.00,CLR,,0.00,WeatherDisplay:10.37,2013-01-01 11:32:00,
2013-01-01 22:37:00,76.8,67.5,29.74,NE,45,3.5,3.5,73,0.00,CLR,,0.00,WeatherDisplay:10.37,2013-01-01 11:37:00,
2013-01-01 22:42:00,76.8,67.9,29.74,SSW,202,1.6,1.6,74,0.00,CLR,,0.00,WeatherDisplay:10.37,2013-01-01 11:42:00,
2013-01-01 22:47:00,76.6,67.3,29.73,SSW,202,1.1,1.1,73,0.00,CLR,,0.00,WeatherDisplay:10.37,2013-01-01 11:47:00,
2013-01-01 22:52:00,76.5,67.6,29.73,WSW,248,0.0,0.0,74,0.00,CLR,,0.00,WeatherDisplay:10.37,2013-01-01 11:52:00,
2013-01-01 22:57:00,76.3,67.0,29.73,WSW,248,0.0,0.0,73,0.00,CLR,,0.00,WeatherDisplay:10.37,2013-01-01 11:57:00,
2013-01-01 23:02:00,76.1,66.8,29.73,NW,315,0.0,0.0,73,0.00,CLR,,0.00,WeatherDisplay:10.37,2013-01-01 12:02:00,
2013-01-01 23:07:00,75.9,67.0,29.73,West,270,0.0,0.0,74,0.00,CLR,,0.00,WeatherDisplay:10.37,2013-01-01 12:07:00,
2013-01-01 23:12:00,75.7,66.9,29.73,NW,315,0.0,0.0,74,0.00,CLR,,0.00,WeatherDisplay:10.37,2013-01-01 12:12:00,
2013-01-01 23:18:00,75.6,66.7,29.73,NW,315,0.0,0.0,74,0.00,CLR,,0.00,WeatherDisplay:10.37,2013-01-01 12:18:00,
2013-01-01 23:23:00,75.4,66.5,29.73,NW,315,0.0,0.0,74,0.00,CLR,,0.00,WeatherDisplay:10.37,2013-01-01 12:23:00,
2013-01-01 23:28:00,75.0,66.6,29.73,SW,225,0.0,0.0,75,0.00,CLR,,0.00,WeatherDisplay:10.37,2013-01-01 12:28:00,
2013-01-01 23:34:00,74.8,66.4,29.73,West,270,0.0,0.0,75,0.00,CLR,,0.00,WeatherDisplay:10.37,2013-01-01 12:34:00,
2013-01-01 23:39:00,74.7,66.2,29.73,West,270,1.1,0.0,75,0.00,CLR,,0.00,WeatherDisplay:10.37,2013-01-01 12:39:00,
2013-01-01 23:44:00,74.3,65.9,29.73,North,0,1.1,1.1,75,0.00,CLR,,0.00,WeatherDisplay:10.37,2013-01-01 12:44:00,
2013-01-01 23:49:00,74.1,65.7,29.72,NNE,22,0.0,0.0,75,0.00,CLR,,0.00,WeatherDisplay:10.37,2013-01-01 12:49:00,
2013-01-01 23:54:00,73.9,65.5,29.73,NNE,22,0.0,0.0,75,0.00,CLR,,0.00,WeatherDisplay:10.37,2013-01-01 12:54:00,
2013-01-01 23:59:00,73.8,65.3,29.73,NNW,338,0.0,0.0,75,0.00,CLR,,0.00,WeatherDisplay:10.37,2013-01-01 12:59:00,